CMZ2 weather

Arthur (Metz Field)
Arthur, Ontario, Canada

Public forecast

Using degrees Celsius for public forecast. Weather courtesy of forecast.io.

METAR (pilot weather report)

Closest report is Waterloo Airport, 21.1 nm (39.2 km) S. Retrieved 2019/09/21 01:00 UTC (27 minutes ago):

CYKF 210100Z AUTO 00000KT 9SM OVC150 18/16 A3019 RMK SLP224 DENSITY ALT 1300FT

TAF (pilot weather forecast)

Closest forecast is Waterloo Airport, 21.1 nm (39.2 km) S. Retrieved 2019/09/21 02:45 UTC (0 seconds ago):

TAF CYKF 210142Z 2102/2114 17010KT P6SM OVC150 FM210300 VRB03KT P6SM FEW040 BECMG 2103/2105 1/4SM FG VV002 FM210500 VRB03KT 1/4SM FG VV002 TEMPO 2105/2111 1SM BR SKC FM211100 VRB03KT 1/4SM FG VV002 BECMG 2111/2113 P6SM NSW SKC FM211300 18008KT P6SM BKN070 RMK FCST BASED ON AUTO OBS. NXT FCST BY 210800Z